Portada
METAR-TAF:

METAR-TAF

Aeroports :

Aeroport Internacional de Pequín

Pequín, Xina

latitud: 39-56N, longitud: 116-17E, altitud: 55 m

Observació

L'informe es va fer fa 27 minuts, a les 04:00 UTC
Vent 8 kt amb direcció variable
Temperatura 11°C
Humitat 15%
Pressió 1023 hPa
Visibilitat 10 km o més
sense núvols per sota de 1500 mi sense presència de cumulonimbus.

METAR: ZBAA 210400Z VRB04MPS CAVOK 11/M15 Q1023 BECMG TL0540 34005MPS

Hora: 12:27 (04:27 UTC)

Pronòstic

L'informe es va fer fa 7 hores i 7 minuts, a les 21:20 UTC
Pronòstic vàlid del 21 a les 00 UTC al 21 a les 24 UTC
Vent 19 kt del Nord-Oest amb ràfegues de 33 kt
Visibilitat 10 km o més
sense núvols per sota de 1500 mi sense presència de cumulonimbus.
Evolucionant progressivament
l' 21 a les 12 UTC al 21 a les 13 UTC
Vent 8 kt del Nord-Oest

TAF: ZBAA 202120Z 2100/2124 32010G17MPS CAVOK TX18/2107Z TN07/2121Z BECMG 2112/2113 32004MPS

Observacions i pronòstics meteorològics de més de 4000 aeroports (METAR i TAF).

Les estacions disponibles són els punts grocs i vermells al mapa.

Posi el ratolí al punt desitjat per veure el nom de l'estació.

Feu clic per veure les observacions i els pronòstics meteorològics.

Per canviar el mapa: feu clic els botons verds amb una creu de color negre per apropar; al botó verd amb un guió per allunyar la imatge; o en les fletxes verdes per a mapes adjacents.


METAR-TAF: